MX-0111 weather

Tenosique Airport
Tenosique de Pino Suárez, Tabasco, Mexico

Public forecast

Using degrees Celsius for public forecast. Weather courtesy of forecast.io.

METAR (pilot weather report)

Closest report is Palenque International Airport, 35.1 nm (65.0 km) W. Retrieved 2019/06/25 14:45 UTC (46 minutes ago):

MMPQ 251445Z 09007KT 6SM BKN200 29/24 A2977 RMK 8/008 HZY

TAF (pilot weather forecast)

Forecast is more than 6 hours old.

Closest forecast is Palenque International Airport, 35.1 nm (65.0 km) W. Retrieved 2019/06/25 06:06 UTC (9 hours ago):

TAF MMPQ 250506Z 2506/2606 09010KT P6SM SKC FM251800 09020KT P6SM SCT030 BKN100 BKN250 FM260500 09010KT P6SM SCT030 SCT250